Time,TemperatureF,DewpointF,PressureIn,WindDirection,WindDirectionDegrees,WindSpeedMPH,WindSpeedGustMPH,Humidity,HourlyPrecipIn,Conditions,Clouds,dailyrainin,SoftwareType,DateUTC
2013-07-03 00:03:00,67.5,57.7,30.03,SSW,208,0.0,0.0,71,0.00,CLR,SKC,0.00,WeatherDisplay:10.37,2013-07-03 05:03:00,
2013-07-03 00:08:00,67.3,57.9,30.04,SSW,208,0.0,0.0,72,0.00,CLR,SKC,0.00,WeatherDisplay:10.37,2013-07-03 05:08:00,
2013-07-03 00:18:00,66.9,57.6,30.03,SSW,208,0.0,2.0,72,0.00,CLR,SKC,0.00,WeatherDisplay:10.37,2013-07-03 05:18:00,
2013-07-03 00:23:00,66.9,57.6,30.03,SW,214,0.0,1.0,72,0.00,CLR,SKC,0.00,WeatherDisplay:10.37,2013-07-03 05:23:00,
2013-07-03 00:28:00,66.7,57.7,30.03,SW,218,0.0,0.0,73,0.00,CLR,SKC,0.00,WeatherDisplay:10.37,2013-07-03 05:28:00,
2013-07-03 00:33:00,66.4,57.5,30.03,SW,218,0.0,0.0,73,0.00,CLR,SKC,0.00,WeatherDisplay:10.37,2013-07-03 05:33:00,
2013-07-03 00:38:00,66.3,57.4,30.03,SW,220,0.0,2.0,73,0.00,CLR,SKC,0.00,WeatherDisplay:10.37,2013-07-03 05:38:00,
2013-07-03 00:43:00,66.3,57.4,30.03,SW,222,0.0,2.0,73,0.00,CLR,SKC,0.00,WeatherDisplay:10.37,2013-07-03 05:43:00,
2013-07-03 00:48:00,66.1,57.2,30.03,SW,222,0.0,0.0,73,0.00,CLR,SKC,0.00,WeatherDisplay:10.37,2013-07-03 05:48:00,
2013-07-03 00:53:00,65.8,57.3,30.02,SW,222,0.0,0.0,74,0.00,CLR,SKC,0.00,WeatherDisplay:10.37,2013-07-03 05:53:00,
2013-07-03 00:58:00,65.7,57.1,30.03,SW,222,0.0,0.0,74,0.00,CLR,SKC,0.00,WeatherDisplay:10.37,2013-07-03 05:58:00,
2013-07-03 01:03:00,65.4,57.3,30.03,SW,222,0.0,0.0,75,0.00,CLR,SKC,0.00,WeatherDisplay:10.37,2013-07-03 06:03:00,
2013-07-03 01:08:00,65.2,57.1,30.03,SW,222,0.0,0.0,75,0.00,CLR,SKC,0.00,WeatherDisplay:10.37,2013-07-03 06:08:00,
2013-07-03 01:13:00,65.0,56.9,30.02,SW,222,0.0,0.0,75,0.00,CLR,SKC,0.00,WeatherDisplay:10.37,2013-07-03 06:13:00,
2013-07-03 01:18:00,64.8,56.7,30.02,SW,222,0.0,0.0,75,0.00,CLR,SKC,0.00,WeatherDisplay:10.37,2013-07-03 06:18:00,
2013-07-03 01:23:00,64.5,56.8,30.02,SW,222,0.0,0.0,76,0.00,CLR,SKC,0.00,WeatherDisplay:10.37,2013-07-03 06:23:00,
2013-07-03 01:28:00,64.4,57.0,30.02,SW,222,0.0,0.0,77,0.00,CLR,SKC,0.00,WeatherDisplay:10.37,2013-07-03 06:28:00,
2013-07-03 01:33:00,64.4,56.7,30.02,SW,222,0.0,2.0,76,0.00,CLR,SKC,0.00,WeatherDisplay:10.37,2013-07-03 06:33:00,
2013-07-03 01:38:00,64.6,56.5,30.02,SW,222,0.0,2.0,75,0.00,CLR,SKC,0.00,WeatherDisplay:10.37,2013-07-03 06:38:00,
2013-07-03 01:43:00,64.7,56.6,30.02,SW,222,0.0,2.0,75,0.00,CLR,SKC,0.00,WeatherDisplay:10.37,2013-07-03 06:43:00,
2013-07-03 01:53:00,64.1,56.4,30.02,SW,222,0.0,0.0,76,0.00,CLR,SKC,0.00,WeatherDisplay:10.37,2013-07-03 06:53:00,
2013-07-03 02:03:00,63.5,56.5,30.02,SW,222,0.0,0.0,78,0.00,CLR,SKC,0.00,WeatherDisplay:10.37,2013-07-03 07:03:00,
2013-07-03 02:08:00,63.2,56.2,30.02,SW,221,0.0,0.0,78,0.00,CLR,SKC,0.00,WeatherDisplay:10.37,2013-07-03 07:08:00,
2013-07-03 02:13:00,63.3,56.4,30.01,SW,222,0.0,2.0,78,0.00,CLR,SKC,0.00,WeatherDisplay:10.37,2013-07-03 07:13:00,
2013-07-03 02:18:00,63.6,56.3,30.01,SW,222,0.0,2.0,77,0.00,CLR,SKC,0.00,WeatherDisplay:10.37,2013-07-03 07:18:00,
2013-07-03 02:23:00,63.6,56.3,30.01,SW,222,0.0,0.0,77,0.00,CLR,SKC,0.00,WeatherDisplay:10.37,2013-07-03 07:23:00,
2013-07-03 02:28:00,63.4,56.4,30.01,SW,222,0.0,0.0,78,0.00,CLR,SKC,0.00,WeatherDisplay:10.37,2013-07-03 07:28:00,
2013-07-03 02:33:00,63.0,56.1,30.01,SW,222,0.0,0.0,78,0.00,CLR,SKC,0.00,WeatherDisplay:10.37,2013-07-03 07:33:00,
2013-07-03 02:38:00,62.7,56.5,30.01,SW,222,0.0,0.0,80,0.00,CLR,SKC,0.00,WeatherDisplay:10.37,2013-07-03 07:38:00,
2013-07-03 02:43:00,62.5,56.6,30.01,SW,222,0.0,0.0,81,0.00,CLR,SKC,0.00,WeatherDisplay:10.37,2013-07-03 07:43:00,
2013-07-03 02:48:00,62.3,56.4,30.01,SW,222,0.0,0.0,81,0.00,CLR,SKC,0.00,WeatherDisplay:10.37,2013-07-03 07:48:00,
2013-07-03 02:53:00,62.0,56.1,30.01,SW,222,0.0,0.0,81,0.00,CLR,SKC,0.00,WeatherDisplay:10.37,2013-07-03 07:53:00,
2013-07-03 03:03:00,61.7,55.8,30.01,SW,222,0.0,0.0,81,0.00,CLR,SKC,0.00,WeatherDisplay:10.37,2013-07-03 08:03:00,
2013-07-03 03:18:00,61.1,55.9,30.01,SW,222,0.0,0.0,83,0.00,CLR,SKC,0.00,WeatherDisplay:10.37,2013-07-03 08:18:00,
2013-07-03 03:23:00,60.9,55.7,30.01,SW,222,0.0,0.0,83,0.00,CLR,SKC,0.00,WeatherDisplay:10.37,2013-07-03 08:23:00,
2013-07-03 03:28:00,60.7,55.5,30.01,SW,222,0.0,0.0,83,0.00,CLR,SKC,0.00,WeatherDisplay:10.37,2013-07-03 08:28:00,
2013-07-03 03:38:00,60.3,55.1,30.01,SW,222,0.0,0.0,83,0.00,CLR,SKC,0.00,WeatherDisplay:10.37,2013-07-03 08:38:00,
2013-07-03 03:43:00,60.1,55.3,30.01,SW,222,0.0,0.0,84,0.00,CLR,SKC,0.00,WeatherDisplay:10.37,2013-07-03 08:43:00,
2013-07-03 03:48:00,60.0,55.5,30.01,SW,222,0.0,0.0,85,0.00,CLR,SKC,0.00,WeatherDisplay:10.37,2013-07-03 08:48:00,
2013-07-03 03:53:00,59.9,55.3,30.01,SW,222,0.0,0.0,85,0.00,CLR,SKC,0.00,WeatherDisplay:10.37,2013-07-03 08:53:00,
2013-07-03 03:58:00,59.7,55.5,30.01,SW,222,0.0,0.0,86,0.00,CLR,SKC,0.00,WeatherDisplay:10.37,2013-07-03 08:58:00,
2013-07-03 04:08:00,60.2,56.3,30.01,SW,222,0.0,0.0,87,0.00,CLR,SKC,0.00,WeatherDisplay:10.37,2013-07-03 09:08:00,
2013-07-03 04:13:00,60.4,56.2,30.01,SW,222,0.0,0.0,86,0.00,CLR,SKC,0.00,WeatherDisplay:10.37,2013-07-03 09:13:00,
2013-07-03 04:18:00,60.3,55.8,30.01,SW,222,0.0,0.0,85,0.00,CLR,SKC,0.00,WeatherDisplay:10.37,2013-07-03 09:18:00,
2013-07-03 04:33:00,59.9,56.0,30.01,SW,222,0.0,0.0,87,0.00,CLR,SKC,0.00,WeatherDisplay:10.37,2013-07-03 09:33:00,
2013-07-03 04:38:00,59.9,56.0,30.01,SW,222,0.0,0.0,87,0.00,CLR,SKC,0.00,WeatherDisplay:10.37,2013-07-03 09:38:00,
2013-07-03 04:43:00,59.8,55.9,30.01,SW,222,0.0,0.0,87,0.00,CLR,SKC,0.00,WeatherDisplay:10.37,2013-07-03 09:43:00,
2013-07-03 04:48:00,59.7,55.8,30.01,SW,222,0.0,0.0,87,0.00,CLR,SKC,0.00,WeatherDisplay:10.37,2013-07-03 09:48:00,
2013-07-03 04:53:00,59.7,56.2,30.01,SW,222,0.0,0.0,88,0.00,CLR,SKC,0.00,WeatherDisplay:10.37,2013-07-03 09:53:00,
2013-07-03 04:58:00,59.7,56.5,30.01,SW,221,0.0,2.0,89,0.00,CLR,SKC,0.00,WeatherDisplay:10.37,2013-07-03 09:58:00,
2013-07-03 05:03:00,60.0,56.8,30.01,SW,218,0.0,1.0,89,0.00,CLR,SKC,0.00,WeatherDisplay:10.37,2013-07-03 10:03:00,
2013-07-03 05:08:00,60.2,56.6,30.01,SW,215,0.0,0.0,88,0.00,CLR,SKC,0.00,WeatherDisplay:10.37,2013-07-03 10:08:00,
2013-07-03 05:18:00,60.5,56.9,30.01,SW,215,0.0,0.0,88,0.00,CLR,SKC,0.00,WeatherDisplay:10.37,2013-07-03 10:18:00,
2013-07-03 05:28:00,61.8,57.2,30.01,SW,216,0.0,0.0,85,0.00,CLR,SKC,0.00,WeatherDisplay:10.37,2013-07-03 10:28:00,
2013-07-03 05:38:00,62.8,57.5,30.01,SW,217,0.0,0.0,83,0.00,CLR,SKC,0.00,WeatherDisplay:10.37,2013-07-03 10:38:00,
2013-07-03 05:48:00,63.2,57.6,30.01,SW,217,0.0,0.0,82,0.00,CLR,SKC,0.00,WeatherDisplay:10.37,2013-07-03 10:48:00,
2013-07-03 05:53:00,63.2,57.3,30.01,SW,217,0.0,2.0,81,0.00,CLR,SKC,0.00,WeatherDisplay:10.37,2013-07-03 10:53:00,
2013-07-03 05:58:00,63.3,57.4,30.01,SW,217,0.0,2.0,81,0.00,CLR,SKC,0.00,WeatherDisplay:10.37,2013-07-03 10:58:00,
2013-07-03 06:03:00,63.4,57.5,30.01,SW,217,0.0,0.0,81,0.00,CLR,SKC,0.00,WeatherDisplay:10.37,2013-07-03 11:03:00,
2013-07-03 06:08:00,63.3,57.7,30.01,SW,217,0.0,0.0,82,0.00,CLR,SKC,0.00,WeatherDisplay:10.37,2013-07-03 11:08:00,
2013-07-03 06:23:00,62.9,57.3,30.01,SW,217,0.0,0.0,82,0.00,CLR,SKC,0.00,WeatherDisplay:10.37,2013-07-03 11:23:00,
2013-07-03 06:28:00,63.2,57.3,30.01,SW,217,0.0,0.0,81,0.00,CLR,SKC,0.00,WeatherDisplay:10.37,2013-07-03 11:28:00,
2013-07-03 06:38:00,63.9,57.2,30.01,SW,217,0.0,2.0,79,0.00,CLR,SKC,0.00,WeatherDisplay:10.37,2013-07-03 11:38:00,
2013-07-03 06:53:00,64.5,57.5,30.01,SW,217,0.0,0.0,78,0.00,CLR,SKC,0.00,WeatherDisplay:10.37,2013-07-03 11:53:00,
2013-07-03 06:58:00,64.8,57.4,30.01,SW,217,0.0,0.0,77,0.00,CLR,SKC,0.00,WeatherDisplay:10.37,2013-07-03 11:58:00,
2013-07-03 07:18:00,65.6,57.8,30.02,SW,216,0.0,0.0,76,0.00,CLR,SKC,0.00,WeatherDisplay:10.37,2013-07-03 12:18:00,
2013-07-03 07:23:00,65.8,58.0,30.02,SW,215,0.0,2.0,76,0.00,CLR,SKC,0.00,WeatherDisplay:10.37,2013-07-03 12:23:00,
2013-07-03 07:33:00,66.4,58.2,30.02,SW,217,0.0,0.0,75,0.00,CLR,SKC,0.00,WeatherDisplay:10.37,2013-07-03 12:33:00,
2013-07-03 07:38:00,66.7,58.2,30.02,SW,217,0.0,3.0,74,0.00,CLR,SKC,0.00,WeatherDisplay:10.37,2013-07-03 12:38:00,
2013-07-03 07:48:00,67.4,58.4,30.03,West,279,0.0,0.0,73,0.00,CLR,SKC,0.00,WeatherDisplay:10.37,2013-07-03 12:48:00,
2013-07-03 07:58:00,68.4,58.7,30.03,West,278,0.0,1.0,71,0.00,CLR,SKC,0.00,WeatherDisplay:10.37,2013-07-03 12:58:00,
2013-07-03 08:03:00,69.1,58.9,30.03,West,278,0.0,0.0,70,0.00,CLR,SKC,0.00,WeatherDisplay:10.37,2013-07-03 13:03:00,
2013-07-03 08:08:00,69.7,58.2,30.03,West,279,0.0,0.0,67,0.00,CLR,SKC,0.00,WeatherDisplay:10.37,2013-07-03 13:08:00,
2013-07-03 08:18:00,71.3,58.5,30.03,SW,216,0.0,2.0,64,0.00,CLR,SKC,0.00,WeatherDisplay:10.37,2013-07-03 13:18:00,
2013-07-03 08:33:00,72.8,57.6,30.04,WSW,249,0.0,3.0,59,0.00,CLR,SKC,0.00,WeatherDisplay:10.37,2013-07-03 13:33:00,
2013-07-03 08:38:00,73.2,57.5,30.04,WSW,250,0.0,3.0,58,0.00,CLR,SKC,0.00,WeatherDisplay:10.37,2013-07-03 13:38:00,
2013-07-03 08:53:00,74.5,57.3,30.04,SE,140,0.0,2.0,55,0.00,CLR,SKC,0.00,WeatherDisplay:10.37,2013-07-03 13:53:00,
2013-07-03 08:58:00,74.8,58.1,30.04,SSE,165,0.0,2.0,56,0.00,CLR,SKC,0.00,WeatherDisplay:10.37,2013-07-03 13:58:00,
2013-07-03 09:03:00,75.3,58.0,30.04,SSW,193,0.0,0.0,55,0.00,CLR,SKC,0.00,WeatherDisplay:10.37,2013-07-03 14:03:00,
2013-07-03 09:08:00,75.6,57.8,30.04,SSW,206,0.0,2.0,54,0.00,CLR,SKC,0.00,WeatherDisplay:10.37,2013-07-03 14:08:00,
2013-07-03 09:18:00,76.2,57.8,30.04,West,281,0.0,2.0,53,0.00,CLR,SKC,0.00,WeatherDisplay:10.37,2013-07-03 14:18:00,
2013-07-03 09:28:00,76.8,58.9,30.04,West,267,0.0,2.0,54,0.00,CLR,SKC,0.00,WeatherDisplay:10.37,2013-07-03 14:28:00,
2013-07-03 09:33:00,76.9,57.4,30.04,WSW,258,0.0,5.0,51,0.00,CLR,SKC,0.00,WeatherDisplay:10.37,2013-07-03 14:33:00,
2013-07-03 09:48:00,77.7,58.2,30.04,West,279,0.0,2.0,51,0.00,CLR,SKC,0.00,WeatherDisplay:10.37,2013-07-03 14:48:00,
2013-07-03 10:03:00,78.5,57.8,30.04,SW,234,1.0,3.0,49,0.00,CLR,SKC,0.00,WeatherDisplay:10.37,2013-07-03 15:03:00,
2013-07-03 10:08:00,78.8,58.6,30.04,SE,130,0.0,2.0,50,0.00,CLR,SKC,0.00,WeatherDisplay:10.37,2013-07-03 15:08:00,
2013-07-03 10:13:00,79.3,59.0,30.04,SSE,158,0.0,1.0,50,0.00,CLR,SKC,0.00,WeatherDisplay:10.37,2013-07-03 15:13:00,
2013-07-03 10:18:00,79.5,58.1,30.04,West,270,2.0,8.0,48,0.00,CLR,SKC,0.00,WeatherDisplay:10.37,2013-07-03 15:18:00,
2013-07-03 10:23:00,79.4,58.0,30.04,WNW,288,0.0,2.0,48,0.00,CLR,SKC,0.00,WeatherDisplay:10.37,2013-07-03 15:23:00,
2013-07-03 10:28:00,79.9,59.0,30.03,NW,311,0.0,3.0,49,0.00,CLR,SKC,0.00,WeatherDisplay:10.37,2013-07-03 15:28:00,
2013-07-03 10:33:00,80.5,58.4,30.03,WNW,289,1.0,5.0,47,0.00,CLR,SKC,0.00,WeatherDisplay:10.37,2013-07-03 15:33:00,
2013-07-03 10:38:00,80.6,59.1,30.03,WSW,253,0.0,2.0,48,0.00,CLR,SKC,0.00,WeatherDisplay:10.37,2013-07-03 15:38:00,
2013-07-03 10:43:00,80.7,58.0,30.03,West,266,1.0,3.0,46,0.00,CLR,SKC,0.00,WeatherDisplay:10.37,2013-07-03 15:43:00,
2013-07-03 10:48:00,80.8,58.7,30.03,WNW,289,0.0,3.0,47,0.00,CLR,SKC,0.00,WeatherDisplay:10.37,2013-07-03 15:48:00,
2013-07-03 10:53:00,80.6,57.3,30.03,West,279,2.0,3.0,45,0.00,CLR,SKC,0.00,WeatherDisplay:10.37,2013-07-03 15:53:00,
2013-07-03 11:03:00,81.5,59.9,30.03,WNW,302,0.0,1.0,48,0.00,CLR,SKC,0.00,WeatherDisplay:10.37,2013-07-03 16:03:00,
2013-07-03 11:13:00,82.3,58.9,30.03,WNW,297,1.0,5.0,45,0.00,CLR,SKC,0.00,WeatherDisplay:10.37,2013-07-03 16:13:00,
2013-07-03 11:23:00,82.4,57.6,30.03,West,275,2.0,7.0,43,0.00,CLR,SKC,0.00,WeatherDisplay:10.37,2013-07-03 16:23:00,
2013-07-03 11:28:00,82.2,58.1,30.02,West,281,1.0,3.0,44,0.00,CLR,SKC,0.00,WeatherDisplay:10.37,2013-07-03 16:28:00,
2013-07-03 11:38:00,82.9,58.7,30.02,SSW,199,1.0,2.0,44,0.00,CLR,SKC,0.00,WeatherDisplay:10.37,2013-07-03 16:38:00,
2013-07-03 11:43:00,83.0,57.5,30.02,WNW,296,1.0,3.0,42,0.00,CLR,SKC,0.00,WeatherDisplay:10.37,2013-07-03 16:43:00,
2013-07-03 11:48:00,83.0,58.2,30.02,West,264,1.0,3.0,43,0.00,CLR,SKC,0.00,WeatherDisplay:10.37,2013-07-03 16:48:00,
2013-07-03 11:58:00,83.6,56.7,30.02,WNW,302,3.0,8.0,40,0.00,CLR,SKC,0.00,WeatherDisplay:10.37,2013-07-03 16:58:00,
2013-07-03 12:23:00,84.2,55.8,30.02,West,273,2.0,5.0,38,0.00,CLR,SKC,0.00,WeatherDisplay:10.37,2013-07-03 17:23:00,
2013-07-03 12:28:00,84.1,56.5,30.01,WSW,254,1.0,3.0,39,0.00,CLR,SKC,0.00,WeatherDisplay:10.37,2013-07-03 17:28:00,
2013-07-03 12:43:00,84.6,56.2,30.01,WSW,254,0.0,3.0,38,0.00,CLR,SKC,0.00,WeatherDisplay:10.37,2013-07-03 17:43:00,
2013-07-03 12:48:00,84.8,57.1,30.01,West,272,1.0,5.0,39,0.00,CLR,SKC,0.00,WeatherDisplay:10.37,2013-07-03 17:48:00,
2013-07-03 12:53:00,84.8,57.1,30.01,West,278,0.0,3.0,39,0.00,CLR,SKC,0.00,WeatherDisplay:10.37,2013-07-03 17:53:00,
2013-07-03 12:58:00,85.4,56.9,30.01,West,280,1.0,3.0,38,0.00,CLR,SKC,0.00,WeatherDisplay:10.37,2013-07-03 17:58:00,
2013-07-03 13:03:00,85.7,56.4,30.00,WSW,247,0.0,2.0,37,0.00,CLR,SKC,0.00,WeatherDisplay:10.37,2013-07-03 18:03:00,
2013-07-03 13:13:00,86.4,57.0,30.00,WSW,256,0.0,2.0,37,0.00,CLR,SKC,0.00,WeatherDisplay:10.37,2013-07-03 18:13:00,
2013-07-03 13:18:00,86.6,56.5,30.00,NW,310,3.0,8.0,36,0.00,CLR,SKC,0.00,WeatherDisplay:10.37,2013-07-03 18:18:00,
2013-07-03 13:28:00,86.9,56.7,30.00,NNW,343,0.0,3.0,36,0.00,CLR,SKC,0.00,WeatherDisplay:10.37,2013-07-03 18:28:00,
2013-07-03 13:33:00,87.0,56.8,29.99,WSW,254,1.0,3.0,36,0.00,CLR,SKC,0.00,WeatherDisplay:10.37,2013-07-03 18:33:00,
2013-07-03 13:38:00,86.9,55.9,29.99,SW,231,1.0,3.0,35,0.00,CLR,SKC,0.00,WeatherDisplay:10.37,2013-07-03 18:38:00,
2013-07-03 13:48:00,87.4,57.1,29.99,East,88,1.0,3.0,36,0.00,CLR,SKC,0.00,WeatherDisplay:10.37,2013-07-03 18:48:00,
2013-07-03 13:53:00,87.5,57.3,29.98,SSW,207,3.0,6.0,36,0.00,CLR,SKC,0.00,WeatherDisplay:10.37,2013-07-03 18:53:00,
2013-07-03 14:13:00,84.2,54.4,29.97,North,356,1.0,2.0,36,0.00,CLR,SKC,0.00,WeatherDisplay:10.37,2013-07-03 19:13:00,
2013-07-03 14:18:00,84.2,56.5,29.97,NNE,30,0.0,2.0,39,0.00,CLR,SKC,0.00,WeatherDisplay:10.37,2013-07-03 19:18:00,
2013-07-03 14:23:00,84.8,56.4,29.97,SE,137,1.0,5.0,38,0.00,CLR,SKC,0.00,WeatherDisplay:10.37,2013-07-03 19:23:00,
2013-07-03 14:28:00,85.5,55.5,29.97,WSW,241,2.0,10.0,36,0.00,CLR,SKC,0.00,WeatherDisplay:10.37,2013-07-03 19:28:00,
2013-07-03 14:33:00,85.9,57.3,29.97,West,275,2.0,8.0,38,0.00,CLR,SKC,0.00,WeatherDisplay:10.37,2013-07-03 19:33:00,
2013-07-03 14:38:00,85.9,56.6,29.97,NW,321,3.0,7.0,37,0.00,CLR,SKC,0.00,WeatherDisplay:10.37,2013-07-03 19:38:00,
2013-07-03 14:43:00,84.9,57.9,29.97,North,3,1.0,7.0,40,0.00,CLR,SKC,0.00,WeatherDisplay:10.37,2013-07-03 19:43:00,
2013-07-03 14:53:00,85.2,55.2,29.96,South,186,2.0,7.0,36,0.00,CLR,SKC,0.00,WeatherDisplay:10.37,2013-07-03 19:53:00,
2013-07-03 14:58:00,85.5,58.4,29.96,South,188,0.0,3.0,40,0.00,CLR,SKC,0.00,WeatherDisplay:10.37,2013-07-03 19:58:00,
2013-07-03 15:08:00,86.6,54.9,29.96,West,268,0.0,2.0,34,0.00,CLR,SKC,0.00,WeatherDisplay:10.37,2013-07-03 20:08:00,
2013-07-03 15:13:00,86.4,54.7,29.96,NNW,335,0.0,3.0,34,0.00,CLR,SKC,0.00,WeatherDisplay:10.37,2013-07-03 20:13:00,
2013-07-03 15:18:00,85.6,53.2,29.96,NNW,338,1.0,3.0,33,0.00,CLR,SKC,0.00,WeatherDisplay:10.37,2013-07-03 20:18:00,
2013-07-03 15:28:00,87.2,56.2,29.96,SSE,163,1.0,5.0,35,0.00,CLR,SKC,0.00,WeatherDisplay:10.37,2013-07-03 20:28:00,
2013-07-03 15:33:00,87.8,55.9,29.95,NE,40,5.0,7.0,34,0.00,CLR,SKC,0.00,WeatherDisplay:10.37,2013-07-03 20:33:00,
2013-07-03 15:38:00,87.6,57.3,29.95,North,1,1.0,7.0,36,0.00,CLR,SKC,0.00,WeatherDisplay:10.37,2013-07-03 20:38:00,
2013-07-03 15:48:00,87.2,55.4,29.95,NW,311,2.0,7.0,34,0.00,CLR,SKC,0.00,WeatherDisplay:10.37,2013-07-03 20:48:00,
2013-07-03 15:53:00,86.6,56.5,29.95,NNE,30,1.0,5.0,36,0.00,CLR,SKC,0.00,WeatherDisplay:10.37,2013-07-03 20:53:00,
2013-07-03 15:58:00,86.8,55.0,29.95,North,10,0.0,3.0,34,0.00,CLR,SKC,0.00,WeatherDisplay:10.37,2013-07-03 20:58:00,
2013-07-03 16:08:00,88.1,55.4,29.95,SSE,161,0.0,3.0,33,0.00,CLR,SKC,0.00,WeatherDisplay:10.37,2013-07-03 21:08:00,
2013-07-03 16:13:00,88.5,54.9,29.94,SSW,192,2.0,7.0,32,0.00,CLR,SKC,0.00,WeatherDisplay:10.37,2013-07-03 21:13:00,
2013-07-03 16:18:00,88.3,54.7,29.94,SSE,151,1.0,7.0,32,0.00,CLR,SKC,0.00,WeatherDisplay:10.37,2013-07-03 21:18:00,
2013-07-03 16:23:00,88.0,53.5,29.94,SSW,213,1.0,7.0,31,0.00,CLR,SKC,0.00,WeatherDisplay:10.37,2013-07-03 21:23:00,
2013-07-03 16:28:00,88.1,54.5,29.94,West,274,1.0,3.0,32,0.00,CLR,SKC,0.00,WeatherDisplay:10.37,2013-07-03 21:28:00,
2013-07-03 16:43:00,87.9,52.6,29.94,North,7,3.0,3.0,30,0.00,CLR,SKC,0.00,WeatherDisplay:10.37,2013-07-03 21:43:00,
2013-07-03 16:48:00,86.2,52.9,29.94,NNW,337,0.0,3.0,32,0.00,CLR,SKC,0.00,WeatherDisplay:10.37,2013-07-03 21:48:00,
2013-07-03 16:53:00,85.7,54.1,29.94,West,260,2.0,5.0,34,0.00,CLR,SKC,0.00,WeatherDisplay:10.37,2013-07-03 21:53:00,
2013-07-03 17:03:00,85.6,57.1,29.95,SW,220,2.0,7.0,38,0.00,CLR,SKC,0.00,WeatherDisplay:10.37,2013-07-03 22:03:00,
2013-07-03 17:08:00,85.1,57.4,29.94,SW,228,3.0,8.0,39,0.00,CLR,SKC,0.00,WeatherDisplay:10.37,2013-07-03 22:08:00,
2013-07-03 17:18:00,83.4,56.6,29.94,WSW,251,6.0,12.0,40,0.00,CLR,SKC,0.00,WeatherDisplay:10.37,2013-07-03 22:18:00,
2013-07-03 17:23:00,83.2,57.7,29.94,West,261,1.0,10.0,42,0.00,CLR,SKC,0.00,WeatherDisplay:10.37,2013-07-03 22:23:00,
2013-07-03 17:28:00,83.2,56.3,29.94,WSW,240,2.0,8.0,40,0.00,CLR,SKC,0.00,WeatherDisplay:10.37,2013-07-03 22:28:00,
2013-07-03 17:38:00,82.9,57.4,29.94,SSW,201,0.0,3.0,42,0.00,CLR,SKC,0.00,WeatherDisplay:10.37,2013-07-03 22:38:00,
2013-07-03 17:43:00,82.1,55.4,29.95,West,281,2.0,12.0,40,0.00,CLR,SKC,0.00,WeatherDisplay:10.37,2013-07-03 22:43:00,
2013-07-03 17:48:00,80.8,56.3,29.95,NNW,337,1.0,6.0,43,0.00,CLR,SKC,0.00,WeatherDisplay:10.37,2013-07-03 22:48:00,
2013-07-03 17:53:00,78.9,59.3,29.96,NNE,26,10.0,24.0,51,0.00,CLR,SKC,0.00,WeatherDisplay:10.37,2013-07-03 22:53:00,
2013-07-03 17:58:00,75.6,59.8,29.96,NNE,25,20.0,28.0,58,0.00,CLR,SKC,0.00,WeatherDisplay:10.37,2013-07-03 22:58:00,
2013-07-03 18:03:00,73.1,60.2,29.96,NNE,17,12.0,26.0,64,0.00,CLR,SKC,0.00,WeatherDisplay:10.37,2013-07-03 23:03:00,
2013-07-03 18:08:00,71.2,60.1,29.97,NNE,13,22.0,29.0,68,0.00,CLR,SKC,0.00,WeatherDisplay:10.37,2013-07-03 23:08:00,
2013-07-03 18:18:00,70.2,59.5,29.98,NNE,33,3.0,10.0,69,0.00,CLR,SKC,0.00,WeatherDisplay:10.37,2013-07-03 23:18:00,
2013-07-03 18:23:00,68.8,59.8,29.99,ESE,120,3.0,11.0,73,0.00,CLR,SKC,0.00,WeatherDisplay:10.37,2013-07-03 23:23:00,
2013-07-03 18:33:00,66.4,59.7,30.01,NE,45,3.0,13.0,79,0.00,CLR,SKC,0.00,WeatherDisplay:10.37,2013-07-03 23:33:00,
2013-07-03 18:38:00,65.8,59.5,30.01,North,11,1.0,7.0,80,0.00,CLR,SKC,0.00,WeatherDisplay:10.37,2013-07-03 23:38:00,
2013-07-03 18:48:00,65.0,59.0,30.01,ESE,120,3.0,8.0,81,0.04,RA,SKC,0.06,WeatherDisplay:10.37,2013-07-03 23:48:00,
2013-07-03 18:53:00,64.1,58.5,30.01,SE,131,5.0,18.0,82,0.02,RA,SKC,0.08,WeatherDisplay:10.37,2013-07-03 23:53:00,
2013-07-03 19:03:00,63.3,58.7,30.02,ESE,106,1.0,5.0,85,0.01,RA,SKC,0.09,WeatherDisplay:10.37,2013-07-04 00:03:00,
2013-07-03 19:08:00,63.0,59.1,30.01,SE,141,0.0,5.0,87,0.00,RA,SKC,0.09,WeatherDisplay:10.37,2013-07-04 00:08:00,
2013-07-03 19:18:00,63.0,59.7,30.01,NNE,13,8.0,10.0,89,0.00,CLR,SKC,0.09,WeatherDisplay:10.37,2013-07-04 00:18:00,
2013-07-03 19:23:00,63.4,60.1,30.01,NNE,24,13.0,18.0,89,0.00,CLR,SKC,0.09,WeatherDisplay:10.37,2013-07-04 00:23:00,
2013-07-03 19:28:00,63.7,60.7,30.01,NE,42,10.0,20.0,90,0.00,CLR,SKC,0.09,WeatherDisplay:10.37,2013-07-04 00:28:00,
2013-07-03 19:33:00,63.9,60.9,30.01,ENE,62,7.0,14.0,90,0.01,RA,SKC,0.10,WeatherDisplay:10.37,2013-07-04 00:33:00,
2013-07-03 19:38:00,63.9,60.9,30.00,NE,48,1.0,10.0,90,0.00,RA,SKC,0.10,WeatherDisplay:10.37,2013-07-04 00:38:00,
2013-07-03 19:48:00,63.9,60.6,30.00,NE,39,1.0,3.0,89,0.00,CLR,SKC,0.10,WeatherDisplay:10.37,2013-07-04 00:48:00,
2013-07-03 19:58:00,63.7,60.7,29.99,SE,138,2.0,10.0,90,0.00,CLR,SKC,0.10,WeatherDisplay:10.37,2013-07-04 00:58:00,
2013-07-03 20:03:00,63.8,60.8,29.99,ESE,113,1.0,5.0,90,0.00,CLR,SKC,0.10,WeatherDisplay:10.37,2013-07-04 01:03:00,
2013-07-03 20:08:00,63.9,61.2,29.98,SE,137,1.0,3.0,91,0.00,CLR,SKC,0.10,WeatherDisplay:10.37,2013-07-04 01:08:00,
2013-07-03 20:13:00,63.8,60.8,29.98,SSE,158,1.0,8.0,90,0.00,CLR,SKC,0.10,WeatherDisplay:10.37,2013-07-04 01:13:00,
2013-07-03 20:18:00,63.7,60.1,29.98,SE,143,2.0,8.0,88,0.00,CLR,SKC,0.10,WeatherDisplay:10.37,2013-07-04 01:18:00,
2013-07-03 20:28:00,63.9,60.3,29.97,SE,141,3.0,8.0,88,0.00,CLR,SKC,0.10,WeatherDisplay:10.37,2013-07-04 01:28:00,
2013-07-03 20:33:00,63.7,60.4,29.97,SSW,213,5.0,10.0,89,0.00,CLR,SKC,0.10,WeatherDisplay:10.37,2013-07-04 01:33:00,
2013-07-03 20:43:00,64.3,60.0,29.97,SSW,200,0.0,2.0,86,0.00,CLR,SKC,0.10,WeatherDisplay:10.37,2013-07-04 01:43:00,
2013-07-03 20:48:00,64.0,60.4,29.98,SE,124,0.0,0.0,88,0.00,CLR,SKC,0.10,WeatherDisplay:10.37,2013-07-04 01:48:00,
2013-07-03 20:53:00,63.8,60.8,29.98,SE,124,0.0,0.0,90,0.00,CLR,SKC,0.10,WeatherDisplay:10.37,2013-07-04 01:53:00,
2013-07-03 20:58:00,63.7,61.0,29.98,SE,124,0.0,0.0,91,0.00,CLR,SKC,0.10,WeatherDisplay:10.37,2013-07-04 01:58:00,
2013-07-03 21:03:00,63.4,60.1,29.98,SE,124,0.0,2.0,89,0.00,CLR,SKC,0.10,WeatherDisplay:10.37,2013-07-04 02:03:00,
2013-07-03 21:13:00,63.8,60.1,29.97,SE,124,0.0,2.0,88,0.00,CLR,SKC,0.10,WeatherDisplay:10.37,2013-07-04 02:13:00,
2013-07-03 21:23:00,64.0,60.3,29.97,South,183,2.0,3.0,88,0.00,CLR,SKC,0.10,WeatherDisplay:10.37,2013-07-04 02:23:00,
2013-07-03 21:28:00,63.9,60.0,29.96,SSW,196,1.0,3.0,87,0.00,CLR,SKC,0.10,WeatherDisplay:10.37,2013-07-04 02:28:00,
2013-07-03 21:33:00,64.0,60.0,29.97,SSW,192,3.0,7.0,87,0.00,CLR,SKC,0.10,WeatherDisplay:10.37,2013-07-04 02:33:00,
2013-07-03 21:38:00,64.1,60.2,29.97,SSW,197,5.0,8.0,87,0.00,CLR,SKC,0.10,WeatherDisplay:10.37,2013-07-04 02:38:00,
2013-07-03 21:43:00,64.2,59.9,29.97,South,185,3.0,8.0,86,0.00,CLR,SKC,0.10,WeatherDisplay:10.37,2013-07-04 02:43:00,
2013-07-03 21:48:00,64.2,59.9,29.97,South,190,1.0,5.0,86,0.00,CLR,SKC,0.10,WeatherDisplay:10.37,2013-07-04 02:48:00,
2013-07-03 21:53:00,64.1,60.2,29.97,SSW,205,1.0,3.0,87,0.00,CLR,SKC,0.10,WeatherDisplay:10.37,2013-07-04 02:53:00,
2013-07-03 22:03:00,64.0,60.4,29.98,SSW,194,0.0,2.0,88,0.00,CLR,SKC,0.10,WeatherDisplay:10.37,2013-07-04 03:03:00,
2013-07-03 22:08:00,63.9,60.6,29.98,South,185,0.0,3.0,89,0.00,CLR,SKC,0.10,WeatherDisplay:10.37,2013-07-04 03:08:00,
2013-07-03 22:13:00,63.8,60.5,29.99,South,189,1.0,5.0,89,0.00,CLR,SKC,0.10,WeatherDisplay:10.37,2013-07-04 03:13:00,
2013-07-03 22:18:00,63.7,60.1,29.99,SSE,161,0.0,3.0,88,0.00,CLR,SKC,0.10,WeatherDisplay:10.37,2013-07-04 03:18:00,
2013-07-03 22:23:00,63.6,60.0,29.99,South,170,0.0,2.0,88,0.00,CLR,SKC,0.10,WeatherDisplay:10.37,2013-07-04 03:23:00,
2013-07-03 22:28:00,63.5,59.9,29.99,WSW,237,0.0,2.0,88,0.00,CLR,SKC,0.10,WeatherDisplay:10.37,2013-07-04 03:28:00,
2013-07-03 22:33:00,63.3,59.4,29.99,SSE,153,0.0,2.0,87,0.00,CLR,SKC,0.10,WeatherDisplay:10.37,2013-07-04 03:33:00,
2013-07-03 22:38:00,63.3,59.7,29.98,SSE,149,0.0,0.0,88,0.00,CLR,SKC,0.10,WeatherDisplay:10.37,2013-07-04 03:38:00,
2013-07-03 22:43:00,63.1,58.9,29.99,SSE,162,1.0,5.0,86,0.00,CLR,SKC,0.10,WeatherDisplay:10.37,2013-07-04 03:43:00,
2013-07-03 22:48:00,63.2,58.6,29.98,SSW,208,1.0,5.0,85,0.00,CLR,SKC,0.10,WeatherDisplay:10.37,2013-07-04 03:48:00,
2013-07-03 22:58:00,63.3,58.4,29.99,SSW,193,0.0,3.0,84,0.00,CLR,SKC,0.10,WeatherDisplay:10.37,2013-07-04 03:58:00,
2013-07-03 23:03:00,63.0,58.4,29.99,South,188,0.0,2.0,85,0.00,CLR,SKC,0.10,WeatherDisplay:10.37,2013-07-04 04:03:00,
2013-07-03 23:08:00,62.7,58.4,29.99,South,182,1.0,7.0,86,0.00,CLR,SKC,0.10,WeatherDisplay:10.37,2013-07-04 04:08:00,
2013-07-03 23:13:00,62.6,58.3,30.00,SE,141,0.0,3.0,86,0.00,CLR,SKC,0.10,WeatherDisplay:10.37,2013-07-04 04:13:00,
2013-07-03 23:18:00,62.6,58.0,29.99,SSE,153,1.0,2.0,85,0.00,CLR,SKC,0.10,WeatherDisplay:10.37,2013-07-04 04:18:00,
2013-07-03 23:23:00,62.8,57.9,29.99,SW,232,1.0,5.0,84,0.00,CLR,SKC,0.10,WeatherDisplay:10.37,2013-07-04 04:23:00,
2013-07-03 23:28:00,62.8,57.9,29.99,SSW,204,0.0,5.0,84,0.00,CLR,SKC,0.10,WeatherDisplay:10.37,2013-07-04 04:28:00,
2013-07-03 23:33:00,62.8,57.6,29.99,SW,215,0.0,3.0,83,0.00,CLR,SKC,0.10,WeatherDisplay:10.37,2013-07-04 04:33:00,
2013-07-03 23:38:00,62.7,57.5,29.99,SSW,205,0.0,1.0,83,0.00,CLR,SKC,0.10,WeatherDisplay:10.37,2013-07-04 04:38:00,
2013-07-03 23:43:00,62.6,57.4,29.99,South,184,0.0,0.0,83,0.00,CLR,SKC,0.10,WeatherDisplay:10.37,2013-07-04 04:43:00,
2013-07-03 23:48:00,62.4,57.5,29.99,South,184,0.0,0.0,84,0.00,CLR,SKC,0.10,WeatherDisplay:10.37,2013-07-04 04:48:00,
2013-07-03 23:53:00,62.1,57.5,29.99,South,184,0.0,0.0,85,0.00,CLR,SKC,0.10,WeatherDisplay:10.37,2013-07-04 04:53:00,
2013-07-03 23:58:00,61.7,57.2,30.00,South,184,0.0,0.0,85,0.00,RA,SKC,0.00,WeatherDisplay:10.37,2013-07-04 04:58:00,